sensor_id;sensor_type;location;lat;lon;timestamp;temperature;humidity
39237;DHT22;36851;49.996;8.268;2022-10-28T00:00:07;19.90;99.90
39237;DHT22;36851;49.996;8.268;2022-10-28T00:02:34;19.90;99.90
39237;DHT22;36851;49.996;8.268;2022-10-28T00:05:02;19.90;99.90
39237;DHT22;36851;49.996;8.268;2022-10-28T00:07:29;19.80;99.90
39237;DHT22;36851;49.996;8.268;2022-10-28T00:09:56;19.80;99.90
39237;DHT22;36851;49.996;8.268;2022-10-28T00:12:23;19.80;99.90
39237;DHT22;36851;49.996;8.268;2022-10-28T00:14:50;19.90;99.90
39237;DHT22;36851;49.996;8.268;2022-10-28T00:17:17;19.90;99.90
39237;DHT22;36851;49.996;8.268;2022-10-28T00:19:44;19.80;99.90
39237;DHT22;36851;49.996;8.268;2022-10-28T00:22:12;19.80;99.90
39237;DHT22;36851;49.996;8.268;2022-10-28T00:24:40;19.80;99.90
39237;DHT22;36851;49.996;8.268;2022-10-28T00:27:07;19.80;99.90
39237;DHT22;36851;49.996;8.268;2022-10-28T00:29:34;19.80;99.90
39237;DHT22;36851;49.996;8.268;2022-10-28T00:32:01;19.80;99.90
39237;DHT22;36851;49.996;8.268;2022-10-28T00:34:28;19.80;99.90
39237;DHT22;36851;49.996;8.268;2022-10-28T00:36:55;19.80;99.90
39237;DHT22;36851;49.996;8.268;2022-10-28T00:39:23;19.80;99.90
39237;DHT22;36851;49.996;8.268;2022-10-28T00:41:51;19.80;99.90
39237;DHT22;36851;49.996;8.268;2022-10-28T00:47:48;19.80;99.90
39237;DHT22;36851;49.996;8.268;2022-10-28T00:49:56;19.80;99.90
39237;DHT22;36851;49.996;8.268;2022-10-28T00:52:25;19.70;99.90
39237;DHT22;36851;49.996;8.268;2022-10-28T00:54:54;19.80;99.90
39237;DHT22;36851;49.996;8.268;2022-10-28T00:57:23;19.80;99.90
39237;DHT22;36851;49.996;8.268;2022-10-28T00:59:52;19.70;99.90
39237;DHT22;36851;49.996;8.268;2022-10-28T01:02:20;19.70;99.90
39237;DHT22;36851;49.996;8.268;2022-10-28T01:04:47;19.80;99.90
39237;DHT22;36851;49.996;8.268;2022-10-28T01:07:15;19.70;99.90
39237;DHT22;36851;49.996;8.268;2022-10-28T01:09:43;19.70;99.90
39237;DHT22;36851;49.996;8.268;2022-10-28T01:22:21;19.80;99.90
39237;DHT22;36851;49.996;8.268;2022-10-28T01:37:46;19.70;99.90
39237;DHT22;36851;49.996;8.268;2022-10-28T01:40:19;19.70;99.90
39237;DHT22;36851;49.996;8.268;2022-10-28T01:45:32;19.70;99.90
39237;DHT22;36851;49.996;8.268;2022-10-28T01:48:01;19.70;99.90
39237;DHT22;36851;49.996;8.268;2022-10-28T01:52:56;19.70;99.90
39237;DHT22;36851;49.996;8.268;2022-10-28T01:55:28;19.70;99.90
39237;DHT22;36851;49.996;8.268;2022-10-28T01:57:56;19.70;99.90
39237;DHT22;36851;49.996;8.268;2022-10-28T02:00:24;19.70;99.90
39237;DHT22;36851;49.996;8.268;2022-10-28T02:02:52;19.70;99.90
39237;DHT22;36851;49.996;8.268;2022-10-28T02:05:36;19.70;99.90
39237;DHT22;36851;49.996;8.268;2022-10-28T02:16:06;19.60;99.90
39237;DHT22;36851;49.996;8.268;2022-10-28T02:18:47;19.60;99.90
39237;DHT22;36851;49.996;8.268;2022-10-28T02:21:19;19.70;99.90
39237;DHT22;36851;49.996;8.268;2022-10-28T02:23:55;19.70;99.90
39237;DHT22;36851;49.996;8.268;2022-10-28T02:26:30;19.70;99.90
39237;DHT22;36851;49.996;8.268;2022-10-28T02:33:58;19.70;99.90
39237;DHT22;36851;49.996;8.268;2022-10-28T02:36:27;19.70;99.90
39237;DHT22;36851;49.996;8.268;2022-10-28T02:38:56;19.70;99.90
39237;DHT22;36851;49.996;8.268;2022-10-28T02:41:25;19.70;99.90
39237;DHT22;36851;49.996;8.268;2022-10-28T02:43:54;19.70;99.90
39237;DHT22;36851;49.996;8.268;2022-10-28T02:46:23;19.70;99.90
39237;DHT22;36851;49.996;8.268;2022-10-28T02:48:53;19.70;99.90
39237;DHT22;36851;49.996;8.268;2022-10-28T02:52:09;19.70;99.90
39237;DHT22;36851;49.996;8.268;2022-10-28T02:54:13;19.70;99.90
39237;DHT22;36851;49.996;8.268;2022-10-28T02:56:44;19.70;99.90
39237;DHT22;36851;49.996;8.268;2022-10-28T02:59:14;19.60;99.90
39237;DHT22;36851;49.996;8.268;2022-10-28T03:01:41;19.60;99.90
39237;DHT22;36851;49.996;8.268;2022-10-28T03:04:08;19.60;99.90
39237;DHT22;36851;49.996;8.268;2022-10-28T03:06:35;19.60;99.90
39237;DHT22;36851;49.996;8.268;2022-10-28T03:09:02;19.60;99.90
39237;DHT22;36851;49.996;8.268;2022-10-28T03:11:29;19.60;99.90
39237;DHT22;36851;49.996;8.268;2022-10-28T03:13:56;19.60;99.90
39237;DHT22;36851;49.996;8.268;2022-10-28T03:16:24;19.60;99.90
39237;DHT22;36851;49.996;8.268;2022-10-28T03:18:52;19.60;99.90
39237;DHT22;36851;49.996;8.268;2022-10-28T03:21:19;19.60;99.90
39237;DHT22;36851;49.996;8.268;2022-10-28T03:23:46;19.60;99.90
39237;DHT22;36851;49.996;8.268;2022-10-28T03:26:13;19.60;99.90
39237;DHT22;36851;49.996;8.268;2022-10-28T03:28:40;19.60;99.90
39237;DHT22;36851;49.996;8.268;2022-10-28T03:31:07;19.60;99.90
39237;DHT22;36851;49.996;8.268;2022-10-28T03:33:34;19.60;99.90
39237;DHT22;36851;49.996;8.268;2022-10-28T03:36:01;19.60;99.90
39237;DHT22;36851;49.996;8.268;2022-10-28T03:38:28;19.60;99.90
39237;DHT22;36851;49.996;8.268;2022-10-28T03:40:55;19.60;99.90
39237;DHT22;36851;49.996;8.268;2022-10-28T03:43:22;19.60;99.90
39237;DHT22;36851;49.996;8.268;2022-10-28T03:45:50;19.60;99.90
39237;DHT22;36851;49.996;8.268;2022-10-28T03:48:17;19.60;99.90
39237;DHT22;36851;49.996;8.268;2022-10-28T03:50:44;19.60;99.90
39237;DHT22;36851;49.996;8.268;2022-10-28T03:53:11;19.60;99.90
39237;DHT22;36851;49.996;8.268;2022-10-28T03:55:38;19.50;99.90
39237;DHT22;36851;49.996;8.268;2022-10-28T03:58:05;19.60;99.90
39237;DHT22;36851;49.996;8.268;2022-10-28T04:00:32;19.60;99.90
39237;DHT22;36851;49.996;8.268;2022-10-28T04:02:59;19.60;99.90
39237;DHT22;36851;49.996;8.268;2022-10-28T04:05:26;19.60;99.90
39237;DHT22;36851;49.996;8.268;2022-10-28T04:07:53;19.70;99.90
39237;DHT22;36851;49.996;8.268;2022-10-28T04:10:20;19.60;99.90
39237;DHT22;36851;49.996;8.268;2022-10-28T04:12:48;19.70;99.90
39237;DHT22;36851;49.996;8.268;2022-10-28T04:15:15;19.60;99.90
39237;DHT22;36851;49.996;8.268;2022-10-28T04:17:42;19.70;99.90
39237;DHT22;36851;49.996;8.268;2022-10-28T04:20:09;19.70;99.90
39237;DHT22;36851;49.996;8.268;2022-10-28T04:22:36;19.70;99.90
39237;DHT22;36851;49.996;8.268;2022-10-28T04:25:03;19.70;99.90
39237;DHT22;36851;49.996;8.268;2022-10-28T04:27:31;19.70;99.90
39237;DHT22;36851;49.996;8.268;2022-10-28T04:29:58;19.70;99.90
39237;DHT22;36851;49.996;8.268;2022-10-28T04:32:25;19.80;99.90
39237;DHT22;36851;49.996;8.268;2022-10-28T04:34:52;19.80;99.90
39237;DHT22;36851;49.996;8.268;2022-10-28T04:37:19;19.80;99.90
39237;DHT22;36851;49.996;8.268;2022-10-28T04:39:46;19.80;99.90
39237;DHT22;36851;49.996;8.268;2022-10-28T04:42:14;19.80;99.90
39237;DHT22;36851;49.996;8.268;2022-10-28T04:44:41;19.80;99.90
39237;DHT22;36851;49.996;8.268;2022-10-28T04:47:08;19.80;99.90
39237;DHT22;36851;49.996;8.268;2022-10-28T04:49:35;19.80;99.90
39237;DHT22;36851;49.996;8.268;2022-10-28T04:52:04;19.80;99.90
39237;DHT22;36851;49.996;8.268;2022-10-28T04:54:32;19.80;99.90
39237;DHT22;36851;49.996;8.268;2022-10-28T04:56:59;19.80;99.90
39237;DHT22;36851;49.996;8.268;2022-10-28T04:59:26;19.80;99.90
39237;DHT22;36851;49.996;8.268;2022-10-28T05:01:53;19.80;99.90
39237;DHT22;36851;49.996;8.268;2022-10-28T05:04:20;19.90;99.90
39237;DHT22;36851;49.996;8.268;2022-10-28T05:06:47;19.80;99.90
39237;DHT22;36851;49.996;8.268;2022-10-28T05:09:14;19.80;99.90
39237;DHT22;36851;49.996;8.268;2022-10-28T05:11:41;19.90;99.90
39237;DHT22;36851;49.996;8.268;2022-10-28T05:14:09;20.00;99.90
39237;DHT22;36851;49.996;8.268;2022-10-28T05:16:36;20.10;99.90
39237;DHT22;36851;49.996;8.268;2022-10-28T05:19:03;20.20;99.90
39237;DHT22;36851;49.996;8.268;2022-10-28T05:21:30;20.30;99.90
39237;DHT22;36851;49.996;8.268;2022-10-28T05:23:57;20.50;99.90
39237;DHT22;36851;49.996;8.268;2022-10-28T05:26:24;20.60;99.90
39237;DHT22;36851;49.996;8.268;2022-10-28T05:28:51;20.70;99.90
39237;DHT22;36851;49.996;8.268;2022-10-28T05:31:18;20.70;99.90
39237;DHT22;36851;49.996;8.268;2022-10-28T05:33:45;20.80;99.90
39237;DHT22;36851;49.996;8.268;2022-10-28T05:36:12;20.80;99.90
39237;DHT22;36851;49.996;8.268;2022-10-28T05:38:39;20.80;99.90
39237;DHT22;36851;49.996;8.268;2022-10-28T05:41:11;20.90;99.90
39237;DHT22;36851;49.996;8.268;2022-10-28T05:43:38;20.80;99.90
39237;DHT22;36851;49.996;8.268;2022-10-28T05:46:05;20.90;99.90
39237;DHT22;36851;49.996;8.268;2022-10-28T05:48:32;20.90;99.90
39237;DHT22;36851;49.996;8.268;2022-10-28T05:50:59;20.80;99.90
39237;DHT22;36851;49.996;8.268;2022-10-28T05:53:27;20.80;99.90
39237;DHT22;36851;49.996;8.268;2022-10-28T05:55:54;20.80;99.90
39237;DHT22;36851;49.996;8.268;2022-10-28T05:58:22;20.80;99.90
39237;DHT22;36851;49.996;8.268;2022-10-28T06:00:49;20.80;99.90
39237;DHT22;36851;49.996;8.268;2022-10-28T06:03:16;20.80;99.90
39237;DHT22;36851;49.996;8.268;2022-10-28T06:05:44;20.70;99.90
39237;DHT22;36851;49.996;8.268;2022-10-28T06:08:11;20.80;99.90
39237;DHT22;36851;49.996;8.268;2022-10-28T06:10:39;20.70;99.90
39237;DHT22;36851;49.996;8.268;2022-10-28T06:13:06;20.70;99.90
39237;DHT22;36851;49.996;8.268;2022-10-28T06:15:34;20.70;99.90
39237;DHT22;36851;49.996;8.268;2022-10-28T06:18:01;20.70;99.90
39237;DHT22;36851;49.996;8.268;2022-10-28T06:20:28;20.70;99.90
39237;DHT22;36851;49.996;8.268;2022-10-28T06:22:55;20.70;99.90
39237;DHT22;36851;49.996;8.268;2022-10-28T06:25:24;20.60;99.90
39237;DHT22;36851;49.996;8.268;2022-10-28T06:27:54;20.60;99.90
39237;DHT22;36851;49.996;8.268;2022-10-28T06:30:23;20.60;99.90
39237;DHT22;36851;49.996;8.268;2022-10-28T06:32:50;20.60;99.90
39237;DHT22;36851;49.996;8.268;2022-10-28T06:35:17;20.60;99.90
39237;DHT22;36851;49.996;8.268;2022-10-28T06:37:44;20.60;99.90
39237;DHT22;36851;49.996;8.268;2022-10-28T06:40:12;20.60;99.90
39237;DHT22;36851;49.996;8.268;2022-10-28T06:42:39;20.60;99.90
39237;DHT22;36851;49.996;8.268;2022-10-28T06:45:06;20.50;99.90
39237;DHT22;36851;49.996;8.268;2022-10-28T06:47:33;20.50;99.90
39237;DHT22;36851;49.996;8.268;2022-10-28T06:50:07;20.50;99.90
39237;DHT22;36851;49.996;8.268;2022-10-28T06:52:34;20.50;99.90
39237;DHT22;36851;49.996;8.268;2022-10-28T06:55:01;20.50;99.90
39237;DHT22;36851;49.996;8.268;2022-10-28T06:57:29;20.50;99.90
39237;DHT22;36851;49.996;8.268;2022-10-28T06:59:56;20.60;99.90
39237;DHT22;36851;49.996;8.268;2022-10-28T07:02:23;20.60;99.90
39237;DHT22;36851;49.996;8.268;2022-10-28T07:04:51;20.60;99.90
39237;DHT22;36851;49.996;8.268;2022-10-28T07:07:18;20.60;99.90
39237;DHT22;36851;49.996;8.268;2022-10-28T07:09:45;20.50;99.90
39237;DHT22;36851;49.996;8.268;2022-10-28T07:12:12;20.50;99.90
39237;DHT22;36851;49.996;8.268;2022-10-28T07:14:39;20.50;99.90
39237;DHT22;36851;49.996;8.268;2022-10-28T07:17:06;20.50;99.90
39237;DHT22;36851;49.996;8.268;2022-10-28T07:19:34;20.50;99.90
39237;DHT22;36851;49.996;8.268;2022-10-28T07:22:01;20.50;99.90
39237;DHT22;36851;49.996;8.268;2022-10-28T07:24:28;20.50;99.90
39237;DHT22;36851;49.996;8.268;2022-10-28T07:26:55;20.60;99.90
39237;DHT22;36851;49.996;8.268;2022-10-28T07:29:23;20.60;99.90
39237;DHT22;36851;49.996;8.268;2022-10-28T07:31:52;20.40;99.90
39237;DHT22;36851;49.996;8.268;2022-10-28T07:34:19;20.10;99.90
39237;DHT22;36851;49.996;8.268;2022-10-28T07:36:53;19.80;99.90
39237;DHT22;36851;49.996;8.268;2022-10-28T07:39:21;19.60;99.90
39237;DHT22;36851;49.996;8.268;2022-10-28T07:41:48;19.70;99.90
39237;DHT22;36851;49.996;8.268;2022-10-28T07:44:15;19.80;99.90
39237;DHT22;36851;49.996;8.268;2022-10-28T07:46:42;20.00;99.90
39237;DHT22;36851;49.996;8.268;2022-10-28T07:49:09;20.00;99.90
39237;DHT22;36851;49.996;8.268;2022-10-28T07:51:36;20.10;99.90
39237;DHT22;36851;49.996;8.268;2022-10-28T07:54:04;20.10;99.90
39237;DHT22;36851;49.996;8.268;2022-10-28T07:56:31;20.20;99.90
39237;DHT22;36851;49.996;8.268;2022-10-28T07:58:59;20.20;99.90
39237;DHT22;36851;49.996;8.268;2022-10-28T08:01:26;20.20;99.90
39237;DHT22;36851;49.996;8.268;2022-10-28T08:03:53;20.30;99.90
39237;DHT22;36851;49.996;8.268;2022-10-28T08:06:21;20.30;99.90
39237;DHT22;36851;49.996;8.268;2022-10-28T08:08:52;20.40;99.90
39237;DHT22;36851;49.996;8.268;2022-10-28T08:11:19;20.40;99.90
39237;DHT22;36851;49.996;8.268;2022-10-28T08:13:51;20.50;99.90
39237;DHT22;36851;49.996;8.268;2022-10-28T08:16:18;20.50;99.90
39237;DHT22;36851;49.996;8.268;2022-10-28T08:18:45;20.60;99.90
39237;DHT22;36851;49.996;8.268;2022-10-28T08:21:12;20.70;99.90
39237;DHT22;36851;49.996;8.268;2022-10-28T08:23:40;20.70;99.90
39237;DHT22;36851;49.996;8.268;2022-10-28T08:26:12;20.70;99.90
39237;DHT22;36851;49.996;8.268;2022-10-28T08:28:40;20.70;99.90
39237;DHT22;36851;49.996;8.268;2022-10-28T08:31:07;20.70;99.90
39237;DHT22;36851;49.996;8.268;2022-10-28T08:33:36;20.70;99.90
39237;DHT22;36851;49.996;8.268;2022-10-28T08:36:05;20.70;99.90
39237;DHT22;36851;49.996;8.268;2022-10-28T08:38:32;20.70;99.90
39237;DHT22;36851;49.996;8.268;2022-10-28T08:41:05;20.80;99.90
39237;DHT22;36851;49.996;8.268;2022-10-28T08:46:31;20.70;99.90
39237;DHT22;36851;49.996;8.268;2022-10-28T08:49:02;20.70;99.90
39237;DHT22;36851;49.996;8.268;2022-10-28T08:51:36;20.70;99.90
39237;DHT22;36851;49.996;8.268;2022-10-28T08:54:12;20.70;99.90
39237;DHT22;36851;49.996;8.268;2022-10-28T08:56:41;20.70;99.90
39237;DHT22;36851;49.996;8.268;2022-10-28T08:59:19;20.70;99.90
39237;DHT22;36851;49.996;8.268;2022-10-28T09:01:48;20.70;99.90
39237;DHT22;36851;49.996;8.268;2022-10-28T09:07:04;20.70;99.90
39237;DHT22;36851;49.996;8.268;2022-10-28T09:09:31;20.60;99.90
39237;DHT22;36851;49.996;8.268;2022-10-28T09:12:07;20.60;99.90
39237;DHT22;36851;49.996;8.268;2022-10-28T09:20:25;20.50;99.90
39237;DHT22;36851;49.996;8.268;2022-10-28T09:22:55;20.50;99.90
39237;DHT22;36851;49.996;8.268;2022-10-28T09:25:45;20.60;99.90
39237;DHT22;36851;49.996;8.268;2022-10-28T09:28:35;20.60;99.90
39237;DHT22;36851;49.996;8.268;2022-10-28T09:31:24;20.60;99.90
39237;DHT22;36851;49.996;8.268;2022-10-28T09:34:00;20.60;99.90
39237;DHT22;36851;49.996;8.268;2022-10-28T09:36:35;20.70;99.90
39237;DHT22;36851;49.996;8.268;2022-10-28T09:39:04;20.60;99.90
39237;DHT22;36851;49.996;8.268;2022-10-28T09:41:38;20.70;99.90
39237;DHT22;36851;49.996;8.268;2022-10-28T09:44:14;20.60;99.90
39237;DHT22;36851;49.996;8.268;2022-10-28T09:46:47;20.60;99.90
39237;DHT22;36851;49.996;8.268;2022-10-28T09:49:17;20.60;99.90
39237;DHT22;36851;49.996;8.268;2022-10-28T09:51:49;20.60;99.90
39237;DHT22;36851;49.996;8.268;2022-10-28T09:54:18;20.60;99.90
39237;DHT22;36851;49.996;8.268;2022-10-28T09:56:47;20.60;99.90
39237;DHT22;36851;49.996;8.268;2022-10-28T09:59:14;20.60;99.90
39237;DHT22;36851;49.996;8.268;2022-10-28T10:01:42;20.60;99.90
39237;DHT22;36851;49.996;8.268;2022-10-28T10:04:16;20.60;99.90
39237;DHT22;36851;49.996;8.268;2022-10-28T10:06:43;20.50;99.90
39237;DHT22;36851;49.996;8.268;2022-10-28T10:09:19;20.40;99.90
39237;DHT22;36851;49.996;8.268;2022-10-28T10:11:47;20.20;99.90
39237;DHT22;36851;49.996;8.268;2022-10-28T10:14:17;20.10;99.90
39237;DHT22;36851;49.996;8.268;2022-10-28T10:16:46;20.00;99.90
39237;DHT22;36851;49.996;8.268;2022-10-28T10:19:14;19.90;99.90
39237;DHT22;36851;49.996;8.268;2022-10-28T10:21:48;19.80;99.90
39237;DHT22;36851;49.996;8.268;2022-10-28T10:24:32;19.80;99.90
39237;DHT22;36851;49.996;8.268;2022-10-28T10:29:36;19.80;99.90
39237;DHT22;36851;49.996;8.268;2022-10-28T10:32:06;19.90;99.90
39237;DHT22;36851;49.996;8.268;2022-10-28T10:34:33;20.00;99.90
39237;DHT22;36851;49.996;8.268;2022-10-28T10:37:00;20.00;99.90
39237;DHT22;36851;49.996;8.268;2022-10-28T10:39:35;20.10;99.90
39237;DHT22;36851;49.996;8.268;2022-10-28T10:42:13;20.10;99.90
39237;DHT22;36851;49.996;8.268;2022-10-28T10:44:40;20.10;99.90
39237;DHT22;36851;49.996;8.268;2022-10-28T10:49:36;20.20;99.90
39237;DHT22;36851;49.996;8.268;2022-10-28T10:52:03;20.30;99.90
39237;DHT22;36851;49.996;8.268;2022-10-28T10:54:33;20.30;99.90
39237;DHT22;36851;49.996;8.268;2022-10-28T10:57:08;20.30;99.90
39237;DHT22;36851;49.996;8.268;2022-10-28T10:59:36;20.30;99.90
39237;DHT22;36851;49.996;8.268;2022-10-28T11:02:03;20.20;99.90
39237;DHT22;36851;49.996;8.268;2022-10-28T11:04:48;20.20;99.90
39237;DHT22;36851;49.996;8.268;2022-10-28T11:07:17;20.40;99.90
39237;DHT22;36851;49.996;8.268;2022-10-28T11:09:46;20.40;99.90
39237;DHT22;36851;49.996;8.268;2022-10-28T11:12:24;20.60;99.90
39237;DHT22;36851;49.996;8.268;2022-10-28T11:14:56;20.60;99.90
39237;DHT22;36851;49.996;8.268;2022-10-28T11:17:25;20.60;99.90
39237;DHT22;36851;49.996;8.268;2022-10-28T11:19:53;20.60;99.90
39237;DHT22;36851;49.996;8.268;2022-10-28T11:22:24;20.60;99.90
39237;DHT22;36851;49.996;8.268;2022-10-28T11:30:18;20.80;99.90
39237;DHT22;36851;49.996;8.268;2022-10-28T11:38:30;20.80;99.90
39237;DHT22;36851;49.996;8.268;2022-10-28T11:43:50;20.80;99.90
39237;DHT22;36851;49.996;8.268;2022-10-28T11:46:48;20.80;99.90
39237;DHT22;36851;49.996;8.268;2022-10-28T11:51:46;20.80;99.90
39237;DHT22;36851;49.996;8.268;2022-10-28T11:54:21;20.90;99.90
39237;DHT22;36851;49.996;8.268;2022-10-28T11:57:06;20.90;99.90
39237;DHT22;36851;49.996;8.268;2022-10-28T12:05:27;20.80;99.90
39237;DHT22;36851;49.996;8.268;2022-10-28T12:20:41;20.60;99.90
39237;DHT22;36851;49.996;8.268;2022-10-28T12:23:13;20.60;99.90
39237;DHT22;36851;49.996;8.268;2022-10-28T12:25:42;20.60;99.90
39237;DHT22;36851;49.996;8.268;2022-10-28T12:28:30;20.60;99.90
39237;DHT22;36851;49.996;8.268;2022-10-28T12:30:59;20.60;99.90
39237;DHT22;36851;49.996;8.268;2022-10-28T12:33:32;20.60;99.90
39237;DHT22;36851;49.996;8.268;2022-10-28T12:41:11;20.60;99.90
39237;DHT22;36851;49.996;8.268;2022-10-28T12:43:49;20.60;99.90
39237;DHT22;36851;49.996;8.268;2022-10-28T12:46:36;20.60;99.90
39237;DHT22;36851;49.996;8.268;2022-10-28T12:49:08;20.60;99.90
39237;DHT22;36851;49.996;8.268;2022-10-28T12:51:40;20.60;99.90
39237;DHT22;36851;49.996;8.268;2022-10-28T12:57:03;20.70;99.90
39237;DHT22;36851;49.996;8.268;2022-10-28T12:59:36;20.60;99.90
39237;DHT22;36851;49.996;8.268;2022-10-28T13:02:03;20.60;99.90
39237;DHT22;36851;49.996;8.268;2022-10-28T13:04:35;20.60;99.90
39237;DHT22;36851;49.996;8.268;2022-10-28T13:07:15;20.60;99.90
39237;DHT22;36851;49.996;8.268;2022-10-28T13:12:21;20.60;99.90
39237;DHT22;36851;49.996;8.268;2022-10-28T13:14:57;20.60;99.90
39237;DHT22;36851;49.996;8.268;2022-10-28T13:20:02;20.60;99.90
39237;DHT22;36851;49.996;8.268;2022-10-28T13:27:44;20.60;99.90
39237;DHT22;36851;49.996;8.268;2022-10-28T13:30:15;20.60;99.90
39237;DHT22;36851;49.996;8.268;2022-10-28T13:32:42;20.60;99.90
39237;DHT22;36851;49.996;8.268;2022-10-28T13:35:11;20.50;99.90
39237;DHT22;36851;49.996;8.268;2022-10-28T13:37:39;20.50;99.90
39237;DHT22;36851;49.996;8.268;2022-10-28T13:40:12;20.50;99.90
39237;DHT22;36851;49.996;8.268;2022-10-28T13:42:47;20.50;99.90
39237;DHT22;36851;49.996;8.268;2022-10-28T13:50:46;20.50;99.90
39237;DHT22;36851;49.996;8.268;2022-10-28T13:55:49;20.50;99.90
39237;DHT22;36851;49.996;8.268;2022-10-28T13:58:22;20.50;99.90
39237;DHT22;36851;49.996;8.268;2022-10-28T14:00:50;20.50;99.90
39237;DHT22;36851;49.996;8.268;2022-10-28T14:03:25;20.50;99.90
39237;DHT22;36851;49.996;8.268;2022-10-28T14:05:55;20.50;99.90
39237;DHT22;36851;49.996;8.268;2022-10-28T14:13:26;20.50;99.90
39237;DHT22;36851;49.996;8.268;2022-10-28T14:19:00;20.60;99.90
39237;DHT22;36851;49.996;8.268;2022-10-28T14:21:38;20.60;99.90
39237;DHT22;36851;49.996;8.268;2022-10-28T14:24:07;20.60;99.90
39237;DHT22;36851;49.996;8.268;2022-10-28T14:29:26;20.60;99.90
39237;DHT22;36851;49.996;8.268;2022-10-28T14:31:54;20.60;99.90
39237;DHT22;36851;49.996;8.268;2022-10-28T14:34:24;20.60;99.90
39237;DHT22;36851;49.996;8.268;2022-10-28T14:39:44;20.60;99.90
39237;DHT22;36851;49.996;8.268;2022-10-28T14:42:21;20.60;99.90
39237;DHT22;36851;49.996;8.268;2022-10-28T14:45:06;20.60;99.90
39237;DHT22;36851;49.996;8.268;2022-10-28T14:52:59;20.70;99.90
39237;DHT22;36851;49.996;8.268;2022-10-28T14:55:28;20.70;99.90
39237;DHT22;36851;49.996;8.268;2022-10-28T15:00:44;20.70;99.90
39237;DHT22;36851;49.996;8.268;2022-10-28T15:03:15;20.70;99.90
39237;DHT22;36851;49.996;8.268;2022-10-28T15:05:42;20.70;99.90
39237;DHT22;36851;49.996;8.268;2022-10-28T15:08:09;20.70;99.90
39237;DHT22;36851;49.996;8.268;2022-10-28T15:10:37;20.70;99.90
39237;DHT22;36851;49.996;8.268;2022-10-28T15:13:11;20.70;99.90
39237;DHT22;36851;49.996;8.268;2022-10-28T15:15:49;20.70;99.90
39237;DHT22;36851;49.996;8.268;2022-10-28T15:18:24;20.70;99.90
39237;DHT22;36851;49.996;8.268;2022-10-28T15:21:07;20.70;99.90
39237;DHT22;36851;49.996;8.268;2022-10-28T15:23:35;20.70;99.90
39237;DHT22;36851;49.996;8.268;2022-10-28T15:26:05;20.70;99.90
39237;DHT22;36851;49.996;8.268;2022-10-28T15:28:33;20.70;99.90
39237;DHT22;36851;49.996;8.268;2022-10-28T15:31:00;20.80;99.90
39237;DHT22;36851;49.996;8.268;2022-10-28T15:33:31;20.80;99.90
39237;DHT22;36851;49.996;8.268;2022-10-28T15:36:11;20.80;99.90
39237;DHT22;36851;49.996;8.268;2022-10-28T15:38:44;20.70;99.90
39237;DHT22;36851;49.996;8.268;2022-10-28T15:43:52;20.70;99.90
39237;DHT22;36851;49.996;8.268;2022-10-28T15:46:20;20.70;99.90
39237;DHT22;36851;49.996;8.268;2022-10-28T15:48:51;20.70;99.90
39237;DHT22;36851;49.996;8.268;2022-10-28T15:51:19;20.60;99.90
39237;DHT22;36851;49.996;8.268;2022-10-28T15:53:46;20.60;99.90
39237;DHT22;36851;49.996;8.268;2022-10-28T15:58:41;20.60;99.90
39237;DHT22;36851;49.996;8.268;2022-10-28T16:03:55;20.70;99.90
39237;DHT22;36851;49.996;8.268;2022-10-28T16:06:29;20.70;99.90
39237;DHT22;36851;49.996;8.268;2022-10-28T16:09:20;20.80;99.90
39237;DHT22;36851;49.996;8.268;2022-10-28T16:11:48;20.80;99.90
39237;DHT22;36851;49.996;8.268;2022-10-28T16:16:44;20.90;99.90
39237;DHT22;36851;49.996;8.268;2022-10-28T16:19:17;21.10;99.90
39237;DHT22;36851;49.996;8.268;2022-10-28T16:21:46;21.20;99.90
39237;DHT22;36851;49.996;8.268;2022-10-28T16:24:13;21.20;99.90
39237;DHT22;36851;49.996;8.268;2022-10-28T16:26:40;21.30;99.90
39237;DHT22;36851;49.996;8.268;2022-10-28T16:29:08;21.40;99.90
39237;DHT22;36851;49.996;8.268;2022-10-28T16:31:35;21.40;99.90
39237;DHT22;36851;49.996;8.268;2022-10-28T16:34:02;21.40;99.90
39237;DHT22;36851;49.996;8.268;2022-10-28T16:36:29;21.40;99.90
39237;DHT22;36851;49.996;8.268;2022-10-28T16:38:57;21.40;99.90
39237;DHT22;36851;49.996;8.268;2022-10-28T16:41:24;21.40;99.90
39237;DHT22;36851;49.996;8.268;2022-10-28T16:43:52;21.50;99.90
39237;DHT22;36851;49.996;8.268;2022-10-28T16:46:19;21.60;99.90
39237;DHT22;36851;49.996;8.268;2022-10-28T16:48:46;21.60;99.90
39237;DHT22;36851;49.996;8.268;2022-10-28T16:51:14;21.60;99.90
39237;DHT22;36851;49.996;8.268;2022-10-28T16:53:45;21.50;99.90
39237;DHT22;36851;49.996;8.268;2022-10-28T16:56:16;21.50;99.90
39237;DHT22;36851;49.996;8.268;2022-10-28T16:58:44;21.50;99.90
39237;DHT22;36851;49.996;8.268;2022-10-28T17:01:13;21.50;99.90
39237;DHT22;36851;49.996;8.268;2022-10-28T17:03:41;21.50;99.90
39237;DHT22;36851;49.996;8.268;2022-10-28T17:06:08;21.50;99.90
39237;DHT22;36851;49.996;8.268;2022-10-28T17:08:36;21.40;99.90
39237;DHT22;36851;49.996;8.268;2022-10-28T17:11:23;21.40;99.90
39237;DHT22;36851;49.996;8.268;2022-10-28T17:13:50;21.50;99.90
39237;DHT22;36851;49.996;8.268;2022-10-28T17:16:17;21.50;99.90
39237;DHT22;36851;49.996;8.268;2022-10-28T17:18:44;21.50;99.90
39237;DHT22;36851;49.996;8.268;2022-10-28T17:21:13;21.40;99.90
39237;DHT22;36851;49.996;8.268;2022-10-28T17:23:40;21.40;99.90
39237;DHT22;36851;49.996;8.268;2022-10-28T17:26:07;21.40;99.90
39237;DHT22;36851;49.996;8.268;2022-10-28T17:28:34;21.40;99.90
39237;DHT22;36851;49.996;8.268;2022-10-28T17:31:02;21.30;99.90
39237;DHT22;36851;49.996;8.268;2022-10-28T17:33:29;21.40;99.90
39237;DHT22;36851;49.996;8.268;2022-10-28T17:36:00;21.40;99.90
39237;DHT22;36851;49.996;8.268;2022-10-28T17:38:30;21.40;99.90
39237;DHT22;36851;49.996;8.268;2022-10-28T17:40:57;21.40;99.90
39237;DHT22;36851;49.996;8.268;2022-10-28T17:43:24;21.40;99.90
39237;DHT22;36851;49.996;8.268;2022-10-28T17:45:54;21.40;99.90
39237;DHT22;36851;49.996;8.268;2022-10-28T17:48:28;21.40;99.90
39237;DHT22;36851;49.996;8.268;2022-10-28T17:50:55;21.40;99.90
39237;DHT22;36851;49.996;8.268;2022-10-28T17:53:23;21.30;99.90
39237;DHT22;36851;49.996;8.268;2022-10-28T17:55:56;21.30;99.90
39237;DHT22;36851;49.996;8.268;2022-10-28T17:58:23;21.40;99.90
39237;DHT22;36851;49.996;8.268;2022-10-28T18:00:57;21.30;99.90
39237;DHT22;36851;49.996;8.268;2022-10-28T18:03:25;21.30;99.90
39237;DHT22;36851;49.996;8.268;2022-10-28T18:05:52;21.30;99.90
39237;DHT22;36851;49.996;8.268;2022-10-28T18:08:20;21.30;99.90
39237;DHT22;36851;49.996;8.268;2022-10-28T18:10:54;21.30;99.90
39237;DHT22;36851;49.996;8.268;2022-10-28T18:13:25;21.30;99.90
39237;DHT22;36851;49.996;8.268;2022-10-28T18:15:53;21.30;99.90
39237;DHT22;36851;49.996;8.268;2022-10-28T18:18:20;21.20;99.90